sensor_id;sensor_type;location;lat;lon;timestamp;P1;durP1;ratioP1;P2;durP2;ratioP2
71836;SDS011;59686;51.716;7.016;2022-07-29T00:01:25;2.58;;;1.65;;
71836;SDS011;59686;51.716;7.016;2022-07-29T00:03:51;2.78;;;1.38;;
71836;SDS011;59686;51.716;7.016;2022-07-29T00:06:16;2.58;;;1.65;;
71836;SDS011;59686;51.716;7.016;2022-07-29T00:08:42;1.38;;;1.20;;
71836;SDS011;59686;51.716;7.016;2022-07-29T00:11:08;3.33;;;1.40;;
71836;SDS011;59686;51.716;7.016;2022-07-29T00:13:33;1.90;;;1.20;;
71836;SDS011;59686;51.716;7.016;2022-07-29T00:15:59;1.85;;;1.45;;
71836;SDS011;59686;51.716;7.016;2022-07-29T00:18:25;1.27;;;1.10;;
71836;SDS011;59686;51.716;7.016;2022-07-29T00:20:50;1.52;;;1.17;;
71836;SDS011;59686;51.716;7.016;2022-07-29T00:23:16;1.67;;;1.20;;
71836;SDS011;59686;51.716;7.016;2022-07-29T00:25:42;1.10;;;1.00;;
71836;SDS011;59686;51.716;7.016;2022-07-29T00:31:26;2.28;;;1.40;;
71836;SDS011;59686;51.716;7.016;2022-07-29T00:33:52;2.08;;;1.30;;
71836;SDS011;59686;51.716;7.016;2022-07-29T00:36:18;1.75;;;1.33;;
71836;SDS011;59686;51.716;7.016;2022-07-29T00:38:46;1.88;;;1.25;;
71836;SDS011;59686;51.716;7.016;2022-07-29T00:41:12;2.88;;;1.60;;
71836;SDS011;59686;51.716;7.016;2022-07-29T00:43:38;2.63;;;1.40;;
71836;SDS011;59686;51.716;7.016;2022-07-29T00:46:06;2.53;;;1.30;;
71836;SDS011;59686;51.716;7.016;2022-07-29T00:48:32;1.55;;;1.10;;
71836;SDS011;59686;51.716;7.016;2022-07-29T00:50:57;1.30;;;1.20;;
71836;SDS011;59686;51.716;7.016;2022-07-29T00:53:25;1.63;;;1.20;;
71836;SDS011;59686;51.716;7.016;2022-07-29T00:55:50;1.58;;;1.15;;
71836;SDS011;59686;51.716;7.016;2022-07-29T00:58:18;1.65;;;1.27;;
71836;SDS011;59686;51.716;7.016;2022-07-29T01:00:44;1.20;;;1.10;;
71836;SDS011;59686;51.716;7.016;2022-07-29T01:03:10;1.35;;;1.10;;
71836;SDS011;59686;51.716;7.016;2022-07-29T01:05:35;2.15;;;1.58;;
71836;SDS011;59686;51.716;7.016;2022-07-29T01:08:01;2.00;;;1.33;;
71836;SDS011;59686;51.716;7.016;2022-07-29T01:10:27;1.30;;;1.20;;
71836;SDS011;59686;51.716;7.016;2022-07-29T01:12:54;2.03;;;1.33;;
71836;SDS011;59686;51.716;7.016;2022-07-29T01:15:23;1.63;;;1.23;;
71836;SDS011;59686;51.716;7.016;2022-07-29T01:25:43;1.55;;;1.33;;
71836;SDS011;59686;51.716;7.016;2022-07-29T01:31:10;1.58;;;1.20;;
71836;SDS011;59686;51.716;7.016;2022-07-29T01:33:38;1.58;;;1.15;;
71836;SDS011;59686;51.716;7.016;2022-07-29T01:36:15;1.77;;;1.30;;
71836;SDS011;59686;51.716;7.016;2022-07-29T01:42:19;1.80;;;1.38;;
71836;SDS011;59686;51.716;7.016;2022-07-29T01:44:57;3.13;;;1.13;;
71836;SDS011;59686;51.716;7.016;2022-07-29T01:47:34;1.77;;;1.20;;
71836;SDS011;59686;51.716;7.016;2022-07-29T01:50:06;1.55;;;1.20;;
71836;SDS011;59686;51.716;7.016;2022-07-29T01:52:46;1.48;;;1.30;;
71836;SDS011;59686;51.716;7.016;2022-07-29T01:55:22;2.30;;;1.40;;
71836;SDS011;59686;51.716;7.016;2022-07-29T01:58:00;1.65;;;1.35;;
71836;SDS011;59686;51.716;7.016;2022-07-29T02:00:46;1.30;;;1.20;;
71836;SDS011;59686;51.716;7.016;2022-07-29T02:03:13;2.00;;;1.15;;
71836;SDS011;59686;51.716;7.016;2022-07-29T02:05:42;3.05;;;1.52;;
71836;SDS011;59686;51.716;7.016;2022-07-29T02:08:11;2.13;;;1.20;;
71836;SDS011;59686;51.716;7.016;2022-07-29T02:10:40;1.95;;;1.45;;
71836;SDS011;59686;51.716;7.016;2022-07-29T02:13:09;2.00;;;1.27;;
71836;SDS011;59686;51.716;7.016;2022-07-29T02:15:36;2.15;;;1.30;;
71836;SDS011;59686;51.716;7.016;2022-07-29T02:18:07;1.50;;;1.20;;
71836;SDS011;59686;51.716;7.016;2022-07-29T02:20:53;2.20;;;1.20;;
71836;SDS011;59686;51.716;7.016;2022-07-29T02:23:23;1.65;;;1.25;;
71836;SDS011;59686;51.716;7.016;2022-07-29T02:25:53;1.60;;;1.33;;
71836;SDS011;59686;51.716;7.016;2022-07-29T02:28:25;1.60;;;1.20;;
71836;SDS011;59686;51.716;7.016;2022-07-29T02:30:53;1.45;;;1.33;;
71836;SDS011;59686;51.716;7.016;2022-07-29T02:33:24;2.75;;;1.33;;
71836;SDS011;59686;51.716;7.016;2022-07-29T02:35:51;1.40;;;1.10;;
71836;SDS011;59686;51.716;7.016;2022-07-29T02:38:27;1.20;;;1.10;;
71836;SDS011;59686;51.716;7.016;2022-07-29T02:41:15;1.58;;;1.23;;
71836;SDS011;59686;51.716;7.016;2022-07-29T02:43:53;1.92;;;1.42;;
71836;SDS011;59686;51.716;7.016;2022-07-29T02:46:25;2.17;;;1.50;;
71836;SDS011;59686;51.716;7.016;2022-07-29T02:49:04;1.98;;;1.42;;
71836;SDS011;59686;51.716;7.016;2022-07-29T02:51:40;1.70;;;1.30;;
71836;SDS011;59686;51.716;7.016;2022-07-29T02:54:24;1.80;;;1.13;;
71836;SDS011;59686;51.716;7.016;2022-07-29T02:56:56;1.80;;;1.50;;
71836;SDS011;59686;51.716;7.016;2022-07-29T02:59:26;1.75;;;1.35;;
71836;SDS011;59686;51.716;7.016;2022-07-29T03:01:55;1.30;;;1.20;;
71836;SDS011;59686;51.716;7.016;2022-07-29T03:04:22;2.00;;;1.30;;
71836;SDS011;59686;51.716;7.016;2022-07-29T03:06:51;1.23;;;1.13;;
71836;SDS011;59686;51.716;7.016;2022-07-29T03:09:17;2.60;;;1.30;;
71836;SDS011;59686;51.716;7.016;2022-07-29T03:11:44;1.60;;;1.40;;
71836;SDS011;59686;51.716;7.016;2022-07-29T03:14:10;1.65;;;1.42;;
71836;SDS011;59686;51.716;7.016;2022-07-29T03:16:37;2.40;;;1.38;;
71836;SDS011;59686;51.716;7.016;2022-07-29T03:19:04;2.72;;;1.60;;
71836;SDS011;59686;51.716;7.016;2022-07-29T03:21:33;2.00;;;1.30;;
71836;SDS011;59686;51.716;7.016;2022-07-29T03:23:59;3.35;;;1.50;;
71836;SDS011;59686;51.716;7.016;2022-07-29T03:26:25;2.00;;;1.35;;
71836;SDS011;59686;51.716;7.016;2022-07-29T03:28:50;3.20;;;1.20;;
71836;SDS011;59686;51.716;7.016;2022-07-29T03:31:16;1.90;;;1.40;;
71836;SDS011;59686;51.716;7.016;2022-07-29T03:33:42;1.95;;;1.30;;
71836;SDS011;59686;51.716;7.016;2022-07-29T03:36:07;2.17;;;1.38;;
71836;SDS011;59686;51.716;7.016;2022-07-29T03:38:34;2.50;;;1.40;;
71836;SDS011;59686;51.716;7.016;2022-07-29T03:41:17;1.77;;;1.55;;
71836;SDS011;59686;51.716;7.016;2022-07-29T03:43:44;3.03;;;1.50;;
71836;SDS011;59686;51.716;7.016;2022-07-29T03:46:12;2.70;;;1.50;;
71836;SDS011;59686;51.716;7.016;2022-07-29T03:48:42;1.70;;;1.45;;
71836;SDS011;59686;51.716;7.016;2022-07-29T03:51:11;1.75;;;1.30;;
71836;SDS011;59686;51.716;7.016;2022-07-29T03:53:37;2.88;;;1.73;;
71836;SDS011;59686;51.716;7.016;2022-07-29T03:56:03;2.53;;;1.45;;
71836;SDS011;59686;51.716;7.016;2022-07-29T03:58:31;1.50;;;1.40;;
71836;SDS011;59686;51.716;7.016;2022-07-29T04:00:58;4.22;;;1.52;;
71836;SDS011;59686;51.716;7.016;2022-07-29T04:03:24;3.35;;;1.60;;
71836;SDS011;59686;51.716;7.016;2022-07-29T04:06:04;3.40;;;1.60;;
71836;SDS011;59686;51.716;7.016;2022-07-29T04:08:31;4.30;;;1.58;;
71836;SDS011;59686;51.716;7.016;2022-07-29T04:11:00;1.55;;;1.45;;
71836;SDS011;59686;51.716;7.016;2022-07-29T04:13:26;1.80;;;1.58;;
71836;SDS011;59686;51.716;7.016;2022-07-29T04:15:52;5.57;;;1.70;;
71836;SDS011;59686;51.716;7.016;2022-07-29T04:18:18;2.97;;;1.30;;
71836;SDS011;59686;51.716;7.016;2022-07-29T04:20:43;3.47;;;1.60;;
71836;SDS011;59686;51.716;7.016;2022-07-29T04:23:09;2.28;;;1.60;;
71836;SDS011;59686;51.716;7.016;2022-07-29T04:28:09;3.05;;;1.50;;
71836;SDS011;59686;51.716;7.016;2022-07-29T04:30:35;2.63;;;1.40;;
71836;SDS011;59686;51.716;7.016;2022-07-29T04:33:03;3.42;;;1.50;;
71836;SDS011;59686;51.716;7.016;2022-07-29T04:35:31;1.70;;;1.40;;
71836;SDS011;59686;51.716;7.016;2022-07-29T04:38:00;2.45;;;1.42;;
71836;SDS011;59686;51.716;7.016;2022-07-29T04:40:25;2.28;;;1.35;;
71836;SDS011;59686;51.716;7.016;2022-07-29T04:42:51;1.92;;;1.60;;
71836;SDS011;59686;51.716;7.016;2022-07-29T04:45:17;1.65;;;1.35;;
71836;SDS011;59686;51.716;7.016;2022-07-29T04:47:42;1.55;;;1.33;;
71836;SDS011;59686;51.716;7.016;2022-07-29T04:50:08;3.35;;;1.52;;
71836;SDS011;59686;51.716;7.016;2022-07-29T04:52:35;3.33;;;1.35;;
71836;SDS011;59686;51.716;7.016;2022-07-29T04:55:01;2.13;;;1.42;;
71836;SDS011;59686;51.716;7.016;2022-07-29T04:57:28;3.60;;;1.70;;
71836;SDS011;59686;51.716;7.016;2022-07-29T04:59:53;2.75;;;1.45;;
71836;SDS011;59686;51.716;7.016;2022-07-29T05:02:19;2.72;;;1.38;;
71836;SDS011;59686;51.716;7.016;2022-07-29T05:04:45;2.72;;;1.50;;
71836;SDS011;59686;51.716;7.016;2022-07-29T05:07:10;3.05;;;1.55;;
71836;SDS011;59686;51.716;7.016;2022-07-29T05:09:36;2.03;;;1.38;;
71836;SDS011;59686;51.716;7.016;2022-07-29T05:12:02;2.63;;;1.45;;
71836;SDS011;59686;51.716;7.016;2022-07-29T05:14:28;1.63;;;1.42;;
71836;SDS011;59686;51.716;7.016;2022-07-29T05:16:53;4.63;;;1.63;;
71836;SDS011;59686;51.716;7.016;2022-07-29T05:19:21;3.10;;;1.40;;
71836;SDS011;59686;51.716;7.016;2022-07-29T05:21:47;3.42;;;1.48;;
71836;SDS011;59686;51.716;7.016;2022-07-29T05:24:13;2.42;;;1.77;;
71836;SDS011;59686;51.716;7.016;2022-07-29T05:26:39;1.95;;;1.40;;
71836;SDS011;59686;51.716;7.016;2022-07-29T05:29:05;2.88;;;1.60;;
71836;SDS011;59686;51.716;7.016;2022-07-29T05:31:31;4.55;;;1.75;;
71836;SDS011;59686;51.716;7.016;2022-07-29T05:33:56;2.55;;;1.60;;
71836;SDS011;59686;51.716;7.016;2022-07-29T05:36:22;4.60;;;1.90;;
71836;SDS011;59686;51.716;7.016;2022-07-29T05:38:48;3.42;;;1.55;;
71836;SDS011;59686;51.716;7.016;2022-07-29T05:41:14;2.03;;;1.50;;
71836;SDS011;59686;51.716;7.016;2022-07-29T05:43:39;2.20;;;1.50;;
71836;SDS011;59686;51.716;7.016;2022-07-29T05:46:05;3.15;;;1.58;;
71836;SDS011;59686;51.716;7.016;2022-07-29T05:48:31;3.85;;;1.80;;
71836;SDS011;59686;51.716;7.016;2022-07-29T05:50:57;3.60;;;1.70;;
71836;SDS011;59686;51.716;7.016;2022-07-29T05:53:23;2.92;;;1.80;;
71836;SDS011;59686;51.716;7.016;2022-07-29T05:55:48;3.83;;;1.90;;
71836;SDS011;59686;51.716;7.016;2022-07-29T05:58:16;4.13;;;1.65;;
71836;SDS011;59686;51.716;7.016;2022-07-29T06:00:42;2.83;;;1.70;;
71836;SDS011;59686;51.716;7.016;2022-07-29T06:03:08;3.60;;;1.75;;
71836;SDS011;59686;51.716;7.016;2022-07-29T06:05:34;2.88;;;1.80;;
71836;SDS011;59686;51.716;7.016;2022-07-29T06:07:59;1.80;;;1.50;;
71836;SDS011;59686;51.716;7.016;2022-07-29T06:10:25;2.15;;;1.70;;
71836;SDS011;59686;51.716;7.016;2022-07-29T06:12:51;2.50;;;1.45;;
71836;SDS011;59686;51.716;7.016;2022-07-29T06:15:17;2.97;;;1.58;;
71836;SDS011;59686;51.716;7.016;2022-07-29T06:17:43;4.18;;;2.17;;
71836;SDS011;59686;51.716;7.016;2022-07-29T06:20:09;2.88;;;1.83;;
71836;SDS011;59686;51.716;7.016;2022-07-29T06:22:35;2.25;;;1.50;;
71836;SDS011;59686;51.716;7.016;2022-07-29T06:25:01;1.50;;;1.40;;
71836;SDS011;59686;51.716;7.016;2022-07-29T06:27:27;3.35;;;1.63;;
71836;SDS011;59686;51.716;7.016;2022-07-29T06:29:53;2.47;;;1.55;;
71836;SDS011;59686;51.716;7.016;2022-07-29T06:32:19;2.30;;;1.50;;
71836;SDS011;59686;51.716;7.016;2022-07-29T06:34:44;2.90;;;1.60;;
71836;SDS011;59686;51.716;7.016;2022-07-29T06:37:10;3.03;;;1.80;;
71836;SDS011;59686;51.716;7.016;2022-07-29T06:39:36;2.08;;;1.52;;
71836;SDS011;59686;51.716;7.016;2022-07-29T06:42:05;3.53;;;1.60;;
71836;SDS011;59686;51.716;7.016;2022-07-29T06:44:31;2.90;;;1.50;;
71836;SDS011;59686;51.716;7.016;2022-07-29T06:47:00;1.92;;;1.67;;
71836;SDS011;59686;51.716;7.016;2022-07-29T06:49:26;3.70;;;1.65;;
71836;SDS011;59686;51.716;7.016;2022-07-29T06:51:53;4.70;;;1.80;;
71836;SDS011;59686;51.716;7.016;2022-07-29T06:54:19;2.55;;;1.77;;
71836;SDS011;59686;51.716;7.016;2022-07-29T06:56:45;3.53;;;1.77;;
71836;SDS011;59686;51.716;7.016;2022-07-29T06:59:11;2.90;;;1.70;;
71836;SDS011;59686;51.716;7.016;2022-07-29T07:01:38;2.10;;;1.70;;
71836;SDS011;59686;51.716;7.016;2022-07-29T07:04:05;2.00;;;1.42;;
71836;SDS011;59686;51.716;7.016;2022-07-29T07:06:33;3.47;;;1.50;;
71836;SDS011;59686;51.716;7.016;2022-07-29T07:08:59;1.60;;;1.50;;
71836;SDS011;59686;51.716;7.016;2022-07-29T07:11:25;2.65;;;1.60;;
71836;SDS011;59686;51.716;7.016;2022-07-29T07:13:50;2.10;;;1.60;;
71836;SDS011;59686;51.716;7.016;2022-07-29T07:16:16;2.80;;;1.80;;
71836;SDS011;59686;51.716;7.016;2022-07-29T07:18:42;2.55;;;1.75;;
71836;SDS011;59686;51.716;7.016;2022-07-29T07:21:10;3.28;;;1.90;;
71836;SDS011;59686;51.716;7.016;2022-07-29T07:23:36;4.97;;;2.00;;
71836;SDS011;59686;51.716;7.016;2022-07-29T07:26:01;2.80;;;1.80;;
71836;SDS011;59686;51.716;7.016;2022-07-29T07:28:28;2.50;;;1.58;;
71836;SDS011;59686;51.716;7.016;2022-07-29T07:30:54;2.15;;;1.65;;
71836;SDS011;59686;51.716;7.016;2022-07-29T07:35:51;2.70;;;1.90;;
71836;SDS011;59686;51.716;7.016;2022-07-29T07:38:17;2.95;;;1.90;;
71836;SDS011;59686;51.716;7.016;2022-07-29T07:40:55;2.47;;;1.83;;
71836;SDS011;59686;51.716;7.016;2022-07-29T07:43:21;3.95;;;1.70;;
71836;SDS011;59686;51.716;7.016;2022-07-29T07:45:47;3.33;;;1.52;;
71836;SDS011;59686;51.716;7.016;2022-07-29T07:48:13;4.22;;;1.58;;
71836;SDS011;59686;51.716;7.016;2022-07-29T07:50:38;2.85;;;1.60;;
71836;SDS011;59686;51.716;7.016;2022-07-29T07:53:04;2.05;;;1.58;;
71836;SDS011;59686;51.716;7.016;2022-07-29T07:55:30;3.30;;;1.75;;
71836;SDS011;59686;51.716;7.016;2022-07-29T07:57:56;1.65;;;1.50;;
71836;SDS011;59686;51.716;7.016;2022-07-29T08:00:21;2.47;;;1.63;;
71836;SDS011;59686;51.716;7.016;2022-07-29T08:02:47;2.45;;;1.58;;
71836;SDS011;59686;51.716;7.016;2022-07-29T08:05:13;2.17;;;1.80;;
71836;SDS011;59686;51.716;7.016;2022-07-29T08:07:42;2.55;;;1.73;;
71836;SDS011;59686;51.716;7.016;2022-07-29T08:10:09;2.83;;;1.67;;
71836;SDS011;59686;51.716;7.016;2022-07-29T08:12:34;1.95;;;1.70;;
71836;SDS011;59686;51.716;7.016;2022-07-29T08:15:00;2.72;;;1.80;;
71836;SDS011;59686;51.716;7.016;2022-07-29T08:17:26;1.60;;;1.50;;
71836;SDS011;59686;51.716;7.016;2022-07-29T08:19:52;2.13;;;1.60;;
71836;SDS011;59686;51.716;7.016;2022-07-29T08:22:17;4.20;;;1.85;;
71836;SDS011;59686;51.716;7.016;2022-07-29T08:24:43;3.03;;;2.00;;
71836;SDS011;59686;51.716;7.016;2022-07-29T08:27:12;2.45;;;1.70;;
71836;SDS011;59686;51.716;7.016;2022-07-29T08:29:38;2.83;;;1.80;;
71836;SDS011;59686;51.716;7.016;2022-07-29T08:32:04;2.50;;;1.90;;
71836;SDS011;59686;51.716;7.016;2022-07-29T08:34:30;2.40;;;1.77;;
71836;SDS011;59686;51.716;7.016;2022-07-29T08:36:57;3.13;;;1.88;;
71836;SDS011;59686;51.716;7.016;2022-07-29T08:39:23;2.72;;;1.70;;
71836;SDS011;59686;51.716;7.016;2022-07-29T08:41:50;2.38;;;1.75;;
71836;SDS011;59686;51.716;7.016;2022-07-29T08:44:19;2.67;;;1.65;;
71836;SDS011;59686;51.716;7.016;2022-07-29T08:46:48;3.05;;;1.95;;
71836;SDS011;59686;51.716;7.016;2022-07-29T08:49:15;3.15;;;1.90;;
71836;SDS011;59686;51.716;7.016;2022-07-29T08:51:41;2.00;;;1.75;;
71836;SDS011;59686;51.716;7.016;2022-07-29T08:56:41;2.42;;;1.80;;
71836;SDS011;59686;51.716;7.016;2022-07-29T08:59:07;3.92;;;1.90;;
71836;SDS011;59686;51.716;7.016;2022-07-29T09:01:34;2.90;;;1.92;;
71836;SDS011;59686;51.716;7.016;2022-07-29T09:04:02;2.92;;;1.80;;
71836;SDS011;59686;51.716;7.016;2022-07-29T09:06:31;2.53;;;1.88;;
71836;SDS011;59686;51.716;7.016;2022-07-29T09:08:59;2.92;;;1.92;;
71836;SDS011;59686;51.716;7.016;2022-07-29T09:11:26;4.05;;;1.75;;
71836;SDS011;59686;51.716;7.016;2022-07-29T09:13:52;3.15;;;1.90;;
71836;SDS011;59686;51.716;7.016;2022-07-29T09:19:22;2.58;;;1.63;;
71836;SDS011;59686;51.716;7.016;2022-07-29T09:21:50;2.28;;;2.00;;
71836;SDS011;59686;51.716;7.016;2022-07-29T09:24:36;3.88;;;2.10;;
71836;SDS011;59686;51.716;7.016;2022-07-29T09:27:24;4.18;;;2.17;;
71836;SDS011;59686;51.716;7.016;2022-07-29T09:30:01;2.33;;;1.95;;
71836;SDS011;59686;51.716;7.016;2022-07-29T09:32:31;3.58;;;1.63;;
71836;SDS011;59686;51.716;7.016;2022-07-29T09:35:14;2.67;;;1.90;;
71836;SDS011;59686;51.716;7.016;2022-07-29T09:37:45;2.78;;;2.10;;
71836;SDS011;59686;51.716;7.016;2022-07-29T09:40:12;3.00;;;2.00;;
71836;SDS011;59686;51.716;7.016;2022-07-29T09:42:37;3.67;;;2.03;;
71836;SDS011;59686;51.716;7.016;2022-07-29T09:45:03;3.53;;;2.17;;
71836;SDS011;59686;51.716;7.016;2022-07-29T09:48:12;3.75;;;1.90;;
71836;SDS011;59686;51.716;7.016;2022-07-29T09:50:35;2.03;;;1.83;;
71836;SDS011;59686;51.716;7.016;2022-07-29T09:53:01;2.80;;;1.95;;
71836;SDS011;59686;51.716;7.016;2022-07-29T09:55:27;2.35;;;1.80;;
71836;SDS011;59686;51.716;7.016;2022-07-29T10:00:53;2.10;;;1.70;;
71836;SDS011;59686;51.716;7.016;2022-07-29T10:03:20;2.50;;;1.85;;
71836;SDS011;59686;51.716;7.016;2022-07-29T10:05:46;2.67;;;1.83;;
71836;SDS011;59686;51.716;7.016;2022-07-29T10:08:28;3.58;;;1.88;;
71836;SDS011;59686;51.716;7.016;2022-07-29T10:11:08;3.20;;;1.75;;
71836;SDS011;59686;51.716;7.016;2022-07-29T10:13:38;2.10;;;1.90;;
71836;SDS011;59686;51.716;7.016;2022-07-29T10:16:06;3.58;;;1.85;;
71836;SDS011;59686;51.716;7.016;2022-07-29T10:18:39;2.45;;;2.05;;
71836;SDS011;59686;51.716;7.016;2022-07-29T10:21:06;3.05;;;1.90;;
71836;SDS011;59686;51.716;7.016;2022-07-29T10:23:33;2.95;;;1.95;;
71836;SDS011;59686;51.716;7.016;2022-07-29T10:25:59;2.25;;;1.70;;
71836;SDS011;59686;51.716;7.016;2022-07-29T10:28:26;2.75;;;2.05;;
71836;SDS011;59686;51.716;7.016;2022-07-29T10:30:52;3.22;;;1.75;;
71836;SDS011;59686;51.716;7.016;2022-07-29T10:36:43;3.13;;;1.83;;
71836;SDS011;59686;51.716;7.016;2022-07-29T10:39:49;2.58;;;1.70;;
71836;SDS011;59686;51.716;7.016;2022-07-29T10:42:55;2.67;;;1.88;;
71836;SDS011;59686;51.716;7.016;2022-07-29T10:45:31;2.63;;;1.77;;
71836;SDS011;59686;51.716;7.016;2022-07-29T10:48:04;2.33;;;1.92;;
71836;SDS011;59686;51.716;7.016;2022-07-29T10:50:56;4.60;;;1.88;;
71836;SDS011;59686;51.716;7.016;2022-07-29T10:56:26;3.08;;;2.05;;
71836;SDS011;59686;51.716;7.016;2022-07-29T11:01:45;2.78;;;2.05;;
71836;SDS011;59686;51.716;7.016;2022-07-29T11:04:12;3.20;;;2.17;;
71836;SDS011;59686;51.716;7.016;2022-07-29T11:09:25;2.50;;;1.70;;
71836;SDS011;59686;51.716;7.016;2022-07-29T11:11:51;2.30;;;2.10;;
71836;SDS011;59686;51.716;7.016;2022-07-29T11:14:18;2.60;;;2.03;;
71836;SDS011;59686;51.716;7.016;2022-07-29T11:17:04;2.65;;;1.70;;
71836;SDS011;59686;51.716;7.016;2022-07-29T11:19:31;2.50;;;1.85;;
71836;SDS011;59686;51.716;7.016;2022-07-29T11:21:57;3.13;;;2.05;;
71836;SDS011;59686;51.716;7.016;2022-07-29T11:24:32;4.40;;;2.20;;
71836;SDS011;59686;51.716;7.016;2022-07-29T11:29:48;2.30;;;1.80;;
71836;SDS011;59686;51.716;7.016;2022-07-29T11:32:16;2.50;;;1.80;;
71836;SDS011;59686;51.716;7.016;2022-07-29T11:34:44;2.10;;;1.73;;
71836;SDS011;59686;51.716;7.016;2022-07-29T11:47:56;3.85;;;2.20;;
71836;SDS011;59686;51.716;7.016;2022-07-29T11:50:29;2.60;;;1.90;;
71836;SDS011;59686;51.716;7.016;2022-07-29T11:52:57;4.00;;;2.47;;
71836;SDS011;59686;51.716;7.016;2022-07-29T11:55:23;4.43;;;2.17;;
71836;SDS011;59686;51.716;7.016;2022-07-29T11:57:50;2.92;;;2.25;;
71836;SDS011;59686;51.716;7.016;2022-07-29T12:00:21;4.10;;;2.30;;
71836;SDS011;59686;51.716;7.016;2022-07-29T12:02:48;3.70;;;1.80;;
71836;SDS011;59686;51.716;7.016;2022-07-29T12:05:14;4.53;;;2.13;;
71836;SDS011;59686;51.716;7.016;2022-07-29T12:07:40;3.35;;;2.28;;
71836;SDS011;59686;51.716;7.016;2022-07-29T12:10:08;3.88;;;2.45;;
71836;SDS011;59686;51.716;7.016;2022-07-29T12:12:34;3.20;;;1.95;;
71836;SDS011;59686;51.716;7.016;2022-07-29T12:15:10;2.83;;;2.10;;
71836;SDS011;59686;51.716;7.016;2022-07-29T12:17:45;2.90;;;2.25;;
71836;SDS011;59686;51.716;7.016;2022-07-29T12:20:12;4.30;;;2.10;;
71836;SDS011;59686;51.716;7.016;2022-07-29T12:22:39;2.85;;;2.28;;
71836;SDS011;59686;51.716;7.016;2022-07-29T12:25:08;3.28;;;2.20;;
71836;SDS011;59686;51.716;7.016;2022-07-29T12:27:40;2.75;;;1.95;;
71836;SDS011;59686;51.716;7.016;2022-07-29T12:30:09;2.83;;;2.22;;
71836;SDS011;59686;51.716;7.016;2022-07-29T12:32:44;3.10;;;2.17;;
71836;SDS011;59686;51.716;7.016;2022-07-29T12:35:12;4.43;;;2.10;;
71836;SDS011;59686;51.716;7.016;2022-07-29T12:37:40;3.13;;;2.03;;
71836;SDS011;59686;51.716;7.016;2022-07-29T12:40:09;3.35;;;2.40;;
71836;SDS011;59686;51.716;7.016;2022-07-29T12:42:36;5.57;;;2.60;;
71836;SDS011;59686;51.716;7.016;2022-07-29T12:45:02;4.45;;;2.60;;
71836;SDS011;59686;51.716;7.016;2022-07-29T12:47:29;3.08;;;2.28;;
71836;SDS011;59686;51.716;7.016;2022-07-29T12:50:11;2.33;;;2.13;;
71836;SDS011;59686;51.716;7.016;2022-07-29T12:52:40;3.15;;;2.60;;
71836;SDS011;59686;51.716;7.016;2022-07-29T12:55:06;3.22;;;2.38;;
71836;SDS011;59686;51.716;7.016;2022-07-29T12:57:50;3.88;;;2.60;;
71836;SDS011;59686;51.716;7.016;2022-07-29T13:00:21;2.47;;;2.10;;
71836;SDS011;59686;51.716;7.016;2022-07-29T13:02:57;6.22;;;2.78;;
71836;SDS011;59686;51.716;7.016;2022-07-29T13:05:24;3.17;;;2.28;;
71836;SDS011;59686;51.716;7.016;2022-07-29T13:08:10;8.20;;;2.70;;
71836;SDS011;59686;51.716;7.016;2022-07-29T13:10:36;3.95;;;2.15;;
71836;SDS011;59686;51.716;7.016;2022-07-29T13:13:06;3.30;;;2.28;;
71836;SDS011;59686;51.716;7.016;2022-07-29T13:15:40;4.80;;;2.08;;
71836;SDS011;59686;51.716;7.016;2022-07-29T13:20:53;6.60;;;2.83;;
71836;SDS011;59686;51.716;7.016;2022-07-29T13:25:49;7.70;;;3.60;;
71836;SDS011;59686;51.716;7.016;2022-07-29T13:28:14;7.10;;;3.92;;
71836;SDS011;59686;51.716;7.016;2022-07-29T13:30:41;8.65;;;4.07;;
71836;SDS011;59686;51.716;7.016;2022-07-29T13:33:07;6.50;;;4.28;;
71836;SDS011;59686;51.716;7.016;2022-07-29T13:35:33;6.50;;;3.67;;
71836;SDS011;59686;51.716;7.016;2022-07-29T13:37:59;6.22;;;3.97;;
71836;SDS011;59686;51.716;7.016;2022-07-29T13:40:24;6.07;;;3.97;;
71836;SDS011;59686;51.716;7.016;2022-07-29T13:42:52;9.73;;;4.45;;
71836;SDS011;59686;51.716;7.016;2022-07-29T13:45:17;6.90;;;4.30;;
71836;SDS011;59686;51.716;7.016;2022-07-29T13:47:43;4.97;;;3.85;;
71836;SDS011;59686;51.716;7.016;2022-07-29T13:50:09;7.18;;;4.50;;
71836;SDS011;59686;51.716;7.016;2022-07-29T13:52:35;7.63;;;4.20;;
71836;SDS011;59686;51.716;7.016;2022-07-29T13:55:03;7.00;;;3.85;;
71836;SDS011;59686;51.716;7.016;2022-07-29T14:00:00;12.05;;;3.92;;
71836;SDS011;59686;51.716;7.016;2022-07-29T14:02:26;7.40;;;3.88;;
71836;SDS011;59686;51.716;7.016;2022-07-29T14:04:52;8.43;;;3.70;;
71836;SDS011;59686;51.716;7.016;2022-07-29T14:07:18;9.57;;;3.78;;
71836;SDS011;59686;51.716;7.016;2022-07-29T14:09:44;5.72;;;4.07;;
71836;SDS011;59686;51.716;7.016;2022-07-29T14:12:09;8.32;;;3.75;;
71836;SDS011;59686;51.716;7.016;2022-07-29T14:14:35;3.88;;;3.13;;
71836;SDS011;59686;51.716;7.016;2022-07-29T14:17:01;8.15;;;4.00;;
71836;SDS011;59686;51.716;7.016;2022-07-29T14:19:28;8.68;;;3.95;;
71836;SDS011;59686;51.716;7.016;2022-07-29T14:21:53;9.52;;;4.03;;
71836;SDS011;59686;51.716;7.016;2022-07-29T14:24:19;9.95;;;3.90;;
71836;SDS011;59686;51.716;7.016;2022-07-29T14:26:45;7.03;;;3.67;;
71836;SDS011;59686;51.716;7.016;2022-07-29T14:32:01;7.53;;;3.63;;
71836;SDS011;59686;51.716;7.016;2022-07-29T14:34:27;9.73;;;3.92;;
71836;SDS011;59686;51.716;7.016;2022-07-29T14:36:53;5.90;;;3.53;;
71836;SDS011;59686;51.716;7.016;2022-07-29T14:39:21;5.07;;;3.30;;
71836;SDS011;59686;51.716;7.016;2022-07-29T14:41:48;7.80;;;3.88;;
71836;SDS011;59686;51.716;7.016;2022-07-29T14:44:18;5.82;;;3.90;;
71836;SDS011;59686;51.716;7.016;2022-07-29T14:46:44;7.93;;;3.67;;
71836;SDS011;59686;51.716;7.016;2022-07-29T14:49:10;7.20;;;3.70;;
71836;SDS011;59686;51.716;7.016;2022-07-29T14:51:35;6.63;;;4.05;;
71836;SDS011;59686;51.716;7.016;2022-07-29T14:54:01;9.05;;;4.30;;
71836;SDS011;59686;51.716;7.016;2022-07-29T14:56:26;10.10;;;4.40;;
71836;SDS011;59686;51.716;7.016;2022-07-29T14:58:54;7.73;;;4.67;;
71836;SDS011;59686;51.716;7.016;2022-07-29T15:01:21;5.90;;;4.03;;
71836;SDS011;59686;51.716;7.016;2022-07-29T15:03:46;9.13;;;4.18;;
71836;SDS011;59686;51.716;7.016;2022-07-29T15:06:12;7.95;;;3.72;;
71836;SDS011;59686;51.716;7.016;2022-07-29T15:08:38;10.30;;;4.38;;
71836;SDS011;59686;51.716;7.016;2022-07-29T15:11:03;6.38;;;4.05;;
71836;SDS011;59686;51.716;7.016;2022-07-29T15:13:38;6.28;;;3.83;;
71836;SDS011;59686;51.716;7.016;2022-07-29T15:16:10;6.07;;;3.78;;
71836;SDS011;59686;51.716;7.016;2022-07-29T15:18:36;5.35;;;3.42;;
71836;SDS011;59686;51.716;7.016;2022-07-29T15:21:03;7.00;;;3.15;;
71836;SDS011;59686;51.716;7.016;2022-07-29T15:23:31;5.03;;;3.50;;
71836;SDS011;59686;51.716;7.016;2022-07-29T15:28:36;5.75;;;3.30;;
71836;SDS011;59686;51.716;7.016;2022-07-29T15:31:01;7.65;;;3.10;;
71836;SDS011;59686;51.716;7.016;2022-07-29T15:33:28;8.32;;;3.40;;
71836;SDS011;59686;51.716;7.016;2022-07-29T15:35:56;7.43;;;3.35;;
71836;SDS011;59686;51.716;7.016;2022-07-29T15:38:24;6.50;;;3.50;;
71836;SDS011;59686;51.716;7.016;2022-07-29T15:40:49;4.40;;;3.15;;
71836;SDS011;59686;51.716;7.016;2022-07-29T15:45:53;6.70;;;3.60;;
71836;SDS011;59686;51.716;7.016;2022-07-29T15:48:48;8.55;;;3.55;;
71836;SDS011;59686;51.716;7.016;2022-07-29T15:51:14;4.80;;;3.25;;
71836;SDS011;59686;51.716;7.016;2022-07-29T15:53:39;4.85;;;3.03;;
71836;SDS011;59686;51.716;7.016;2022-07-29T15:56:05;7.68;;;3.22;;
71836;SDS011;59686;51.716;7.016;2022-07-29T15:58:31;6.30;;;3.00;;
71836;SDS011;59686;51.716;7.016;2022-07-29T16:00:58;7.25;;;2.80;;
71836;SDS011;59686;51.716;7.016;2022-07-29T16:03:24;7.25;;;2.97;;
71836;SDS011;59686;51.716;7.016;2022-07-29T16:05:49;7.05;;;3.20;;
71836;SDS011;59686;51.716;7.016;2022-07-29T16:08:15;4.55;;;2.67;;